Time;durP1;ratioP1;P1;durP2;ratioP2;P2;SDS_P1;SDS_P2;PMS_P1;PMS_P2;Temp;Humidity;BMP_temperature;BMP_pressure;BME280_temperature;BME280_humidity;BME280_pressure;Samples;Min_cycle;Max_cycle;Signal;HPM_P1;HPM_P2
2023/11/01 00:00:21;;;;;;;0.90;0.40;;;;;;;5.21;89.15;100130.03;5011206;28;20045;-67
2023/11/01 00:02:47;;;;;;;0.77;0.50;;;;;;;5.18;89.01;100110.72;5026270;28;20428;-67
2023/11/01 00:05:12;;;;;;;0.70;0.50;;;;;;;5.02;90.24;100116.19;5011025;28;20117;-67
2023/11/01 00:07:38;;;;;;;1.33;0.40;;;;;;;5.22;88.88;100124.50;5009956;28;20038;-68
2023/11/01 00:10:04;;;;;;;0.70;0.50;;;;;;;5.34;89.40;100143.59;5010033;28;20865;-68
2023/11/01 00:12:29;;;;;;;0.70;0.45;;;;;;;5.41;88.80;100144.50;5010821;28;20033;-68
2023/11/01 00:14:55;;;;;;;0.55;0.40;;;;;;;5.23;89.64;100141.34;5009768;28;20034;-67
2023/11/01 00:17:20;;;;;;;0.50;0.40;;;;;;;5.29;89.79;100153.97;5014564;28;20104;-68
2023/11/01 00:19:45;;;;;;;0.85;0.50;;;;;;;5.37;89.05;100151.22;5013622;28;20025;-67
2023/11/01 00:22:12;;;;;;;1.10;0.40;;;;;;;5.17;90.34;100159.75;5014464;28;20042;-67
2023/11/01 00:24:37;;;;;;;0.90;0.45;;;;;;;5.19;89.05;100141.69;5029627;28;20118;-68
2023/11/01 00:27:03;;;;;;;0.68;0.40;;;;;;;5.42;88.52;100167.50;5013696;28;20399;-68
2023/11/01 00:29:29;;;;;;;0.80;0.40;;;;;;;5.39;88.25;100150.00;5014239;28;20022;-68
2023/11/01 00:31:54;;;;;;;0.68;0.30;;;;;;;5.15;89.70;100171.59;5014428;28;20038;-68
2023/11/01 00:34:20;;;;;;;0.80;0.60;;;;;;;5.06;90.10;100176.16;5014874;28;20034;-67
2023/11/01 00:36:46;;;;;;;1.55;0.50;;;;;;;4.85;91.26;100152.81;5014409;28;20018;-68
2023/11/01 00:39:11;;;;;;;0.82;0.35;;;;;;;5.10;90.00;100164.13;5013510;28;20026;-68
2023/11/01 00:41:36;;;;;;;0.50;0.30;;;;;;;5.06;90.99;100162.00;5020685;28;20017;-68
2023/11/01 00:44:02;;;;;;;0.60;0.50;;;;;;;5.09;90.36;100167.78;5031108;28;20042;-67
2023/11/01 00:46:27;;;;;;;0.93;0.40;;;;;;;4.97;90.61;100163.06;5023126;28;20492;-68
2023/11/01 00:48:52;;;;;;;0.55;0.40;;;;;;;4.75;91.45;100146.06;5014291;28;20064;-68
2023/11/01 00:51:18;;;;;;;0.70;0.50;;;;;;;5.03;91.10;100173.84;5014356;28;20033;-68
2023/11/01 00:53:43;;;;;;;0.75;0.50;;;;;;;5.12;90.27;100172.75;5014380;28;20524;-67
2023/11/01 00:56:09;;;;;;;0.65;0.40;;;;;;;5.25;89.02;100169.50;5013642;28;20065;-68
2023/11/01 00:58:35;;;;;;;1.77;0.38;;;;;;;4.96;91.82;100167.56;5014754;28;20030;-67
2023/11/01 01:01:00;;;;;;;0.65;0.30;;;;;;;4.86;92.22;100172.31;5014041;28;20136;-68
2023/11/01 01:03:26;;;;;;;0.98;0.40;;;;;;;4.85;91.56;100170.66;5012692;28;20095;-68
2023/11/01 01:05:51;;;;;;;0.95;0.60;;;;;;;5.05;90.62;100174.50;5014136;28;20048;-68
2023/11/01 01:08:17;;;;;;;0.95;0.50;;;;;;;4.95;90.43;100172.06;5012585;28;20385;-68
2023/11/01 01:10:43;;;;;;;0.80;0.50;;;;;;;4.97;91.48;100179.03;5012827;28;20038;-68
2023/11/01 01:13:09;;;;;;;0.65;0.40;;;;;;;5.06;90.30;100180.66;5014162;28;20073;-68
2023/11/01 01:15:34;;;;;;;0.80;0.50;;;;;;;4.99;90.79;100180.53;4996105;28;20120;-68
2023/11/01 01:18:00;;;;;;;0.50;0.50;;;;;;;4.98;90.51;100184.22;5013997;28;20121;-68
2023/11/01 01:20:25;;;;;;;1.58;0.70;;;;;;;4.88;91.70;100180.97;5013797;28;20440;-67
2023/11/01 01:22:50;;;;;;;0.90;0.60;;;;;;;4.90;90.46;100163.78;5013676;28;20022;-68
2023/11/01 01:25:16;;;;;;;0.50;0.40;;;;;;;5.04;90.65;100172.03;5013454;28;20551;-68
2023/11/01 01:27:42;;;;;;;0.88;0.60;;;;;;;4.98;90.96;100173.56;5012659;28;20034;-68
2023/11/01 01:30:08;;;;;;;0.73;0.50;;;;;;;5.20;89.28;100174.56;5013581;28;20053;-68
2023/11/01 01:32:34;;;;;;;1.02;0.60;;;;;;;5.22;88.77;100172.53;5013114;28;20124;-68
2023/11/01 01:34:59;;;;;;;0.88;0.55;;;;;;;5.13;89.26;100169.13;5013341;28;20101;-68
2023/11/01 01:37:25;;;;;;;0.65;0.40;;;;;;;5.26;88.36;100181.81;5013122;28;20116;-67
2023/11/01 01:39:51;;;;;;;1.88;0.50;;;;;;;5.28;87.97;100176.31;5011970;28;20052;-68
2023/11/01 01:42:16;;;;;;;0.88;0.30;;;;;;;5.25;88.77;100179.34;5011719;28;20116;-68
2023/11/01 01:44:41;;;;;;;0.85;0.40;;;;;;;5.14;89.48;100185.94;5012539;28;20030;-68
2023/11/01 01:47:07;;;;;;;1.00;0.40;;;;;;;5.06;90.14;100181.47;5030765;28;20033;-67
2023/11/01 01:49:33;;;;;;;1.20;0.43;;;;;;;5.09;90.14;100183.78;5018257;28;20073;-66
2023/11/01 01:52:00;;;;;;;1.67;0.50;;;;;;;5.25;88.74;100190.00;5023003;28;20033;-68
2023/11/01 01:54:27;;;;;;;0.57;0.45;;;;;;;5.12;89.33;100193.28;5013703;28;20036;-68
2023/11/01 01:56:53;;;;;;;0.73;0.52;;;;;;;5.03;89.13;100179.16;5013755;28;20068;-68
2023/11/01 01:59:19;;;;;;;1.15;0.40;;;;;;;5.10;88.99;100182.81;5012917;28;20034;-68
2023/11/01 02:01:45;;;;;;;1.08;0.50;;;;;;;5.14;88.31;100185.94;5020473;28;20022;-68
2023/11/01 02:04:12;;;;;;;0.65;0.50;;;;;;;5.10;89.14;100190.81;5029878;28;20438;-67
2023/11/01 02:06:38;;;;;;;0.65;0.40;;;;;;;5.22;87.97;100196.53;5014918;28;20041;-68
2023/11/01 02:09:05;;;;;;;0.82;0.60;;;;;;;5.18;87.63;100193.38;5012992;28;20033;-68
2023/11/01 02:11:36;;;;;;;1.05;0.47;;;;;;;5.19;87.70;100194.22;5012294;28;20428;-68
2023/11/01 02:14:01;;;;;;;0.70;0.40;;;;;;;5.05;87.98;100203.81;5012841;28;20052;-68
2023/11/01 02:16:27;;;;;;;0.60;0.40;;;;;;;4.94;89.31;100212.25;5011730;28;20128;-68
2023/11/01 02:18:52;;;;;;;1.10;0.50;;;;;;;4.80;89.80;100186.34;5011280;28;20109;-68
2023/11/01 02:21:18;;;;;;;1.45;0.60;;;;;;;4.93;89.20;100207.91;5014875;28;20021;-67
2023/11/01 02:23:43;;;;;;;1.05;0.50;;;;;;;4.85;89.54;100210.63;5012802;28;20076;-67
2023/11/01 02:26:09;;;;;;;0.82;0.50;;;;;;;4.62;91.29;100210.59;5013535;28;20489;-67
2023/11/01 02:28:34;;;;;;;0.55;0.30;;;;;;;4.92;89.87;100217.75;5010810;28;20480;-68
2023/11/01 02:31:00;;;;;;;0.65;0.40;;;;;;;4.78;90.22;100217.69;5011422;28;20038;-68
2023/11/01 02:33:31;;;;;;;0.95;0.60;;;;;;;4.55;90.61;100221.13;5011864;28;20048;-68
2023/11/01 02:35:56;;;;;;;0.77;0.50;;;;;;;4.63;90.48;100215.75;5011383;28;20026;-68
2023/11/01 02:38:21;;;;;;;0.40;0.30;;;;;;;4.57;90.97;100220.94;5011683;28;20532;-68
2023/11/01 02:40:47;;;;;;;0.55;0.40;;;;;;;4.82;89.88;100213.66;5011522;28;20080;-67
2023/11/01 02:43:14;;;;;;;0.70;0.40;;;;;;;4.55;90.50;100225.63;5013076;28;20029;-67
2023/11/01 02:45:39;;;;;;;0.80;0.40;;;;;;;4.17;90.21;100170.38;5024817;28;20026;-67
2023/11/01 02:48:05;;;;;;;0.60;0.30;;;;;;;4.58;89.25;100210.13;5013999;28;20022;-68
2023/11/01 02:50:31;;;;;;;0.98;0.57;;;;;;;4.77;88.05;100198.19;5012650;28;20136;-67
2023/11/01 02:52:57;;;;;;;0.40;0.30;;;;;;;5.02;86.66;100220.19;5013347;28;20132;-68
2023/11/01 02:55:22;;;;;;;0.63;0.32;;;;;;;4.55;88.67;100223.78;5028571;28;20029;-68
2023/11/01 02:57:48;;;;;;;0.77;0.40;;;;;;;4.44;88.75;100224.19;5021977;28;20105;-68
2023/11/01 03:00:19;;;;;;;0.45;0.30;;;;;;;4.78;87.92;100218.50;4995904;28;20049;-68
2023/11/01 03:02:48;;;;;;;1.08;0.40;;;;;;;4.71;87.47;100223.72;5011866;28;20053;-68
2023/11/01 03:05:15;;;;;;;0.73;0.45;;;;;;;4.51;87.83;100216.34;5011058;28;20068;-67
2023/11/01 03:07:41;;;;;;;0.80;0.40;;;;;;;4.82;87.31;100219.81;5011589;28;20064;-68
2023/11/01 03:10:07;;;;;;;1.15;0.55;;;;;;;4.68;87.29;100194.75;5010219;28;20033;-68
2023/11/01 03:12:33;;;;;;;1.20;0.50;;;;;;;4.66;88.15;100228.72;5009576;28;20552;-68
2023/11/01 03:14:58;;;;;;;0.88;0.47;;;;;;;4.68;88.47;100239.22;5011748;28;20030;-68
2023/11/01 03:17:23;;;;;;;0.93;0.40;;;;;;;4.69;88.60;100233.69;5010036;28;20120;-68
2023/11/01 03:19:49;;;;;;;2.08;0.50;;;;;;;4.64;88.14;100233.41;5011408;28;20026;-67
2023/11/01 03:22:14;;;;;;;1.38;0.50;;;;;;;4.71;87.68;100242.38;5011530;28;20545;-68
2023/11/01 03:24:40;;;;;;;0.50;0.40;;;;;;;4.86;87.39;100241.59;5010098;28;20037;-68
2023/11/01 03:27:05;;;;;;;1.02;0.40;;;;;;;4.91;86.52;100248.09;5011857;28;20512;-67
2023/11/01 03:29:31;;;;;;;1.95;0.40;;;;;;;4.70;87.39;100251.38;5011158;28;20030;-68
2023/11/01 03:31:56;;;;;;;0.40;0.30;;;;;;;4.89;85.87;100225.25;5010306;28;20448;-68
2023/11/01 03:34:25;;;;;;;1.15;0.40;;;;;;;4.97;85.83;100232.38;4994089;28;20041;-68
2023/11/01 03:36:50;;;;;;;0.43;0.30;;;;;;;5.10;84.73;100240.63;5011078;28;20109;-68
2023/11/01 03:39:17;;;;;;;1.85;0.52;;;;;;;4.96;84.41;100239.53;5026820;28;20120;-67
2023/11/01 03:41:43;;;;;;;0.63;0.30;;;;;;;5.00;84.38;100221.34;5026654;28;20029;-68
2023/11/01 03:44:09;;;;;;;1.30;0.40;;;;;;;5.19;83.68;100234.22;5011383;28;20026;-68
2023/11/01 03:46:35;;;;;;;0.52;0.38;;;;;;;4.81;83.84;100244.00;5010115;28;20034;-67
2023/11/01 03:49:00;;;;;;;0.63;0.32;;;;;;;4.97;83.09;100233.22;5009955;28;20061;-68
2023/11/01 03:51:26;;;;;;;0.50;0.30;;;;;;;4.84;83.41;100243.63;5026363;28;20400;-68
2023/11/01 03:53:52;;;;;;;0.63;0.45;;;;;;;5.07;83.38;100239.16;5011561;28;20025;-68
2023/11/01 03:56:20;;;;;;;0.43;0.30;;;;;;;4.88;83.11;100245.75;5026292;28;20040;-68
2023/11/01 03:58:46;;;;;;;0.65;0.30;;;;;;;4.97;83.27;100243.03;5026494;28;20018;-68
2023/11/01 04:01:11;;;;;;;0.40;0.28;;;;;;;4.99;82.00;100249.03;5010889;28;20040;-68
2023/11/01 04:03:37;;;;;;;0.68;0.40;;;;;;;4.99;82.09;100244.53;5013141;28;20030;-68
2023/11/01 04:06:02;;;;;;;0.60;0.40;;;;;;;4.86;82.48;100254.94;5010984;28;20496;-68
2023/11/01 04:08:27;;;;;;;0.30;0.30;;;;;;;4.95;82.00;100241.38;5009874;28;20172;-68
2023/11/01 04:10:53;;;;;;;0.98;0.30;;;;;;;4.84;82.27;100248.97;5010493;28;20071;-68
2023/11/01 04:13:19;;;;;;;0.47;0.30;;;;;;;4.93;81.39;100243.41;5009828;28;20037;-67
2023/11/01 04:15:45;;;;;;;0.32;0.30;;;;;;;4.84;81.64;100251.63;5009871;28;20049;-68
2023/11/01 04:18:10;;;;;;;0.57;0.30;;;;;;;4.66;82.36;100250.03;5010388;28;20117;-67
2023/11/01 04:20:35;;;;;;;0.82;0.40;;;;;;;4.69;81.76;100240.88;5010150;28;20033;-68
2023/11/01 04:23:01;;;;;;;0.50;0.32;;;;;;;4.58;81.70;100241.28;5010019;28;20057;-68
2023/11/01 04:25:28;;;;;;;0.57;0.32;;;;;;;4.66;81.84;100251.88;5010699;28;20029;-68
2023/11/01 04:27:55;;;;;;;0.60;0.45;;;;;;;4.60;82.38;100253.44;5011218;28;20025;-68
2023/11/01 04:30:21;;;;;;;0.70;0.40;;;;;;;4.65;81.78;100259.03;5011048;28;20156;-68
2023/11/01 04:32:46;;;;;;;1.38;0.50;;;;;;;4.64;81.48;100249.41;5010454;28;20124;-68
2023/11/01 04:35:11;;;;;;;0.75;0.40;;;;;;;4.65;81.88;100251.06;5009701;28;20524;-67
2023/11/01 04:37:41;;;;;;;0.77;0.50;;;;;;;4.55;82.72;100254.94;5010714;28;20029;-67
2023/11/01 04:40:11;;;;;;;1.00;0.50;;;;;;;4.52;82.38;100265.94;5025282;28;20065;-68
2023/11/01 04:42:42;;;;;;;1.58;0.50;;;;;;;4.35;82.26;100244.69;5009291;28;20738;-68
2023/11/01 04:45:09;;;;;;;1.90;0.55;;;;;;;4.45;82.11;100269.28;5026542;28;20064;-68
2023/11/01 04:47:35;;;;;;;1.38;0.50;;;;;;;4.41;82.29;100270.66;5008809;28;20108;-68
2023/11/01 04:50:02;;;;;;;0.88;0.50;;;;;;;4.33;82.36;100273.31;5010476;28;20097;-68
2023/11/01 04:52:28;;;;;;;1.02;0.40;;;;;;;4.28;81.90;100272.19;5008946;28;20041;-68
2023/11/01 04:54:54;;;;;;;2.40;0.63;;;;;;;4.07;83.32;100267.41;5008633;28;20485;-68
2023/11/01 04:57:19;;;;;;;0.90;0.35;;;;;;;4.00;83.61;100269.91;5009009;28;20038;-68
2023/11/01 04:59:44;;;;;;;0.73;0.43;;;;;;;3.97;83.58;100268.44;5010840;28;20059;-68
2023/11/01 05:02:10;;;;;;;1.85;0.50;;;;;;;3.87;83.74;100277.59;5009393;28;20026;-68
2023/11/01 05:04:35;;;;;;;1.35;0.60;;;;;;;3.83;84.34;100270.94;5013640;28;20033;-69
2023/11/01 05:07:01;;;;;;;0.90;0.65;;;;;;;3.83;83.86;100268.28;5012602;28;20073;-68
2023/11/01 05:09:26;;;;;;;1.10;0.52;;;;;;;3.75;84.00;100264.66;5028631;28;20038;-68
2023/11/01 05:11:52;;;;;;;0.80;0.50;;;;;;;3.70;83.69;100266.97;5012298;28;20092;-68
2023/11/01 05:14:20;;;;;;;0.70;0.50;;;;;;;3.66;83.98;100267.47;5013682;28;20449;-69
2023/11/01 05:16:46;;;;;;;1.92;0.40;;;;;;;3.55;84.20;100270.50;5013575;28;20734;-68
2023/11/01 05:19:12;;;;;;;0.60;0.45;;;;;;;3.51;84.12;100281.47;5013851;28;20026;-68
2023/11/01 05:21:38;;;;;;;1.10;0.60;;;;;;;3.42;83.80;100277.13;5010955;28;20097;-69
2023/11/01 05:24:04;;;;;;;0.85;0.63;;;;;;;3.22;84.28;100250.03;5013328;28;20765;-68
2023/11/01 05:26:30;;;;;;;1.10;0.43;;;;;;;3.40;83.89;100291.56;5028783;28;20037;-68
2023/11/01 05:28:57;;;;;;;1.65;0.45;;;;;;;3.30;84.43;100289.06;5013966;28;20029;-68
2023/11/01 05:31:23;;;;;;;1.33;0.70;;;;;;;3.27;84.01;100287.56;5014030;28;20113;-68
2023/11/01 05:33:50;;;;;;;2.55;0.80;;;;;;;3.27;84.15;100289.41;5013901;28;20109;-68
2023/11/01 05:36:15;;;;;;;0.70;0.43;;;;;;;3.24;84.06;100295.03;5031412;28;20591;-68
2023/11/01 05:38:42;;;;;;;0.60;0.50;;;;;;;3.23;84.11;100299.53;5023386;28;20061;-68
2023/11/01 05:41:10;;;;;;;0.63;0.60;;;;;;;3.17;84.53;100294.88;5038189;28;20033;-68
2023/11/01 05:43:37;;;;;;;2.25;0.70;;;;;;;3.05;84.75;100302.34;5029091;28;20033;-68
2023/11/01 05:46:04;;;;;;;1.23;0.50;;;;;;;2.97;84.64;100291.66;5014048;28;20073;-68
2023/11/01 05:48:30;;;;;;;0.57;0.52;;;;;;;2.91;84.91;100294.97;5013890;28;20164;-68
2023/11/01 05:50:56;;;;;;;1.20;0.70;;;;;;;2.95;85.06;100303.47;5012746;28;20544;-68
2023/11/01 05:53:21;;;;;;;3.35;0.80;;;;;;;2.83;85.92;100308.25;5010978;28;20164;-69
2023/11/01 05:55:47;;;;;;;1.25;0.70;;;;;;;2.78;85.36;100306.09;5011671;28;20037;-68
2023/11/01 05:58:12;;;;;;;4.00;0.80;;;;;;;2.80;85.94;100306.75;5013206;28;20030;-68
2023/11/01 06:00:38;;;;;;;2.60;0.80;;;;;;;2.78;85.86;100300.78;5013135;28;20037;-68
2023/11/01 06:03:07;;;;;;;0.88;0.60;;;;;;;2.72;85.99;100301.41;5012848;28;20022;-68
2023/11/01 06:05:35;;;;;;;0.80;0.70;;;;;;;2.75;86.12;100311.72;5027500;28;20034;-68
2023/11/01 06:08:12;;;;;;;0.73;0.65;;;;;;;2.74;86.17;100320.66;5010481;28;20049;-68
2023/11/01 06:10:38;;;;;;;1.42;0.90;;;;;;;2.74;86.41;100325.97;5010763;28;20037;-69
2023/11/01 06:13:07;;;;;;;1.73;0.98;;;;;;;2.77;86.65;100332.78;5012370;28;20037;-68
2023/11/01 06:15:33;;;;;;;1.20;0.68;;;;;;;2.71;85.92;100323.63;5012417;28;20025;-69
2023/11/01 06:17:59;;;;;;;0.88;0.70;;;;;;;2.70;87.02;100347.72;5030101;28;20092;-69
2023/11/01 06:20:24;;;;;;;1.10;0.60;;;;;;;2.68;87.14;100334.59;5035339;28;20021;-68
2023/11/01 06:22:50;;;;;;;1.23;0.80;;;;;;;2.71;87.00;100334.25;5014470;28;20026;-69
2023/11/01 06:25:16;;;;;;;1.10;0.80;;;;;;;2.71;86.42;100334.25;5014452;28;20113;-68
2023/11/01 06:27:42;;;;;;;2.17;0.70;;;;;;;2.70;86.25;100339.75;5011962;28;20516;-68
2023/11/01 06:30:08;;;;;;;2.45;0.70;;;;;;;2.78;86.54;100345.94;5028621;28;20049;-68
2023/11/01 06:32:37;;;;;;;0.75;0.70;;;;;;;2.58;86.26;100317.94;5012669;28;20038;-67
2023/11/01 06:35:03;;;;;;;1.13;0.82;;;;;;;2.65;86.70;100340.25;5012856;28;20089;-66
2023/11/01 06:37:29;;;;;;;0.77;0.60;;;;;;;2.71;86.17;100352.03;5011142;28;20084;-69
2023/11/01 06:39:55;;;;;;;1.33;0.82;;;;;;;2.75;86.20;100348.91;5012669;28;20029;-67
2023/11/01 06:42:21;;;;;;;2.35;0.80;;;;;;;2.53;86.06;100306.97;5012097;28;20444;-68
2023/11/01 06:44:46;;;;;;;1.25;0.75;;;;;;;2.78;85.44;100347.75;5010812;28;20485;-69
2023/11/01 06:47:12;;;;;;;2.45;0.70;;;;;;;2.73;86.20;100352.72;5027216;28;20029;-70
2023/11/01 06:49:38;;;;;;;1.75;0.85;;;;;;;2.59;86.13;100335.56;5010849;28;20104;-69
2023/11/01 06:52:04;;;;;;;1.10;1.00;;;;;;;2.70;85.90;100353.84;5025290;28;20057;-67
2023/11/01 06:54:30;;;;;;;2.47;0.88;;;;;;;2.71;85.21;100350.19;5010868;28;20044;-69
2023/11/01 06:56:56;;;;;;;2.60;1.30;;;;;;;2.70;85.25;100340.56;5010239;28;20030;-68
2023/11/01 06:59:21;;;;;;;3.40;2.35;;;;;;;2.64;85.58;100349.19;5011680;28;20489;-68
2023/11/01 07:01:47;;;;;;;6.90;4.00;;;;;;;2.58;85.62;100345.34;5011223;28;20021;-68
2023/11/01 07:04:12;;;;;;;4.28;3.50;;;;;;;2.55;86.22;100350.13;5011626;28;20034;-68
2023/11/01 07:06:38;;;;;;;3.95;3.40;;;;;;;2.62;86.36;100356.50;5011628;28;20545;-69
2023/11/01 07:09:05;;;;;;;3.72;3.03;;;;;;;2.73;85.93;100363.34;5012089;28;20029;-68
2023/11/01 07:11:31;;;;;;;4.63;3.42;;;;;;;2.78;85.98;100364.53;5010107;28;20034;-67
2023/11/01 07:13:56;;;;;;;14.38;10.40;;;;;;;2.57;86.04;100321.59;5027201;28;20084;-68
2023/11/01 07:16:22;;;;;;;11.30;7.18;;;;;;;2.83;86.27;100340.97;5011721;28;20438;-68
2023/11/01 07:18:47;;;;;;;17.02;9.95;;;;;;;2.87;86.27;100337.97;5013467;28;20080;-69
2023/11/01 07:21:12;;;;;;;12.35;7.32;;;;;;;2.86;85.56;100336.34;5010542;28;20030;-68
2023/11/01 07:23:38;;;;;;;10.88;6.47;;;;;;;2.88;85.55;100347.63;5010992;28;20025;-68
2023/11/01 07:26:03;;;;;;;6.38;4.20;;;;;;;2.86;85.90;100354.94;4993536;28;20061;-68
2023/11/01 07:28:30;;;;;;;8.68;5.53;;;;;;;2.89;85.64;100357.28;5026562;28;20051;-68
2023/11/01 07:30:55;;;;;;;5.72;4.32;;;;;;;2.91;85.71;100355.25;5011606;28;20055;-68
2023/11/01 07:33:21;;;;;;;11.60;4.47;;;;;;;2.75;85.98;100337.47;5010881;28;20521;-67
2023/11/01 07:35:47;;;;;;;7.68;5.00;;;;;;;2.94;85.77;100368.22;5011270;28;20084;-70
2023/11/01 07:38:13;;;;;;;5.72;2.90;;;;;;;2.85;85.74;100338.16;5011187;28;20038;-69
2023/11/01 07:40:38;;;;;;;5.95;2.60;;;;;;;3.04;86.24;100360.97;5011557;28;20026;-69
2023/11/01 07:43:04;;;;;;;4.10;2.40;;;;;;;3.14;86.06;100366.16;5010125;28;20030;-69
2023/11/01 07:45:31;;;;;;;2.05;1.00;;;;;;;3.00;87.24;100352.47;5011358;28;20185;-68
2023/11/01 07:47:56;;;;;;;1.90;1.20;;;;;;;3.01;87.80;100350.66;5011390;28;20057;-68
2023/11/01 07:50:22;;;;;;;2.10;1.20;;;;;;;3.10;88.43;100349.69;5011051;28;20050;-68
2023/11/01 07:52:47;;;;;;;2.10;1.30;;;;;;;3.02;88.27;100337.22;5011260;28;20037;-68
2023/11/01 07:55:13;;;;;;;3.13;1.52;;;;;;;3.24;87.99;100369.50;5011114;28;20034;-68
2023/11/01 07:57:38;;;;;;;2.72;1.38;;;;;;;3.38;88.16;100376.84;5011543;28;20542;-68
2023/11/01 08:00:05;;;;;;;2.05;1.25;;;;;;;3.43;87.90;100376.34;5010856;28;20037;-68
2023/11/01 08:02:32;;;;;;;3.58;1.10;;;;;;;3.53;87.31;100383.19;5011467;28;20121;-69
2023/11/01 08:04:58;;;;;;;2.05;1.15;;;;;;;3.54;87.11;100389.34;5010007;28;20076;-68
2023/11/01 08:07:24;;;;;;;2.88;1.77;;;;;;;3.49;88.13;100383.69;5010027;28;20030;-68
2023/11/01 08:09:51;;;;;;;5.78;3.00;;;;;;;3.63;88.10;100393.69;5011335;28;20030;-69
2023/11/01 08:12:17;;;;;;;2.40;1.80;;;;;;;3.68;88.74;100387.88;5012025;28;20038;-68
2023/11/01 08:14:43;;;;;;;1.60;1.30;;;;;;;3.85;88.66;100386.91;5011702;28;20025;-69
2023/11/01 08:17:09;;;;;;;2.38;1.83;;;;;;;3.91;88.04;100391.56;5011733;28;20396;-68
2023/11/01 08:19:35;;;;;;;2.17;1.70;;;;;;;3.97;87.88;100390.03;5010858;28;20054;-67
2023/11/01 08:22:01;;;;;;;2.08;1.40;;;;;;;3.97;87.75;100385.56;5011278;28;20026;-68
2023/11/01 08:24:26;;;;;;;2.50;1.30;;;;;;;4.08;87.20;100394.22;5026247;28;20037;-68
2023/11/01 08:26:52;;;;;;;1.88;1.27;;;;;;;4.13;87.75;100413.19;5010429;28;20026;-68
2023/11/01 08:29:17;;;;;;;1.63;1.25;;;;;;;4.18;87.88;100406.34;5010945;28;20153;-67
2023/11/01 08:31:43;;;;;;;1.85;1.30;;;;;;;4.19;87.47;100400.03;5009613;28;20026;-67
2023/11/01 08:34:08;;;;;;;3.35;2.00;;;;;;;4.20;88.07;100387.53;5007656;28;20481;-67
2023/11/01 08:36:34;;;;;;;2.47;1.63;;;;;;;4.05;88.84;100384.72;5008312;28;20103;-67
2023/11/01 08:38:59;;;;;;;1.98;1.40;;;;;;;4.06;89.31;100385.56;5011935;28;20026;-67
2023/11/01 08:41:24;;;;;;;1.50;1.30;;;;;;;4.11;88.78;100384.06;5012091;28;20022;-67
2023/11/01 08:43:50;;;;;;;1.27;1.08;;;;;;;4.18;89.05;100387.72;5012422;28;20034;-68
2023/11/01 08:46:15;;;;;;;2.22;1.40;;;;;;;4.15;89.22;100404.03;5009322;28;20473;-67
2023/11/01 08:48:41;;;;;;;1.95;1.15;;;;;;;4.16;89.05;100400.34;5012304;28;20050;-67
2023/11/01 08:51:08;;;;;;;3.28;0.90;;;;;;;4.31;88.27;100402.38;5027724;28;20057;-67
2023/11/01 08:53:36;;;;;;;1.65;1.00;;;;;;;4.39;87.49;100399.69;5012537;28;20018;-67
2023/11/01 08:56:07;;;;;;;2.10;1.10;;;;;;;4.35;87.45;100393.03;5013067;28;20132;-68
2023/11/01 08:58:33;;;;;;;2.35;0.80;;;;;;;4.14;88.21;100390.88;5012806;28;20501;-67
2023/11/01 09:01:00;;;;;;;1.73;0.75;;;;;;;4.30;87.21;100388.19;5013006;28;20120;-68
2023/11/01 09:03:27;;;;;;;1.33;0.80;;;;;;;4.21;87.71;100394.56;5028298;28;20026;-68
2023/11/01 09:05:54;;;;;;;3.42;0.63;;;;;;;4.26;87.42;100388.72;5009675;28;20033;-67
2023/11/01 09:08:20;;;;;;;1.58;0.70;;;;;;;4.35;85.79;100393.03;5013600;28;20026;-68
2023/11/01 09:10:45;;;;;;;2.78;0.60;;;;;;;4.48;85.98;100388.84;5027968;28;20758;-67
2023/11/01 09:13:12;;;;;;;1.17;0.70;;;;;;;4.45;85.54;100377.69;5025150;28;20032;-67
2023/11/01 09:15:38;;;;;;;2.08;0.82;;;;;;;4.29;85.68;100369.72;5013603;28;20025;-68
2023/11/01 09:18:05;;;;;;;1.75;0.68;;;;;;;4.50;85.93;100380.66;4995062;28;20029;-67
2023/11/01 09:20:30;;;;;;;1.65;0.80;;;;;;;4.44;85.78;100378.69;5013224;28;20025;-67
2023/11/01 09:22:57;;;;;;;1.92;0.85;;;;;;;4.29;85.80;100369.72;5012482;28;20056;-67
2023/11/01 09:25:24;;;;;;;0.82;0.70;;;;;;;4.38;85.65;100382.88;5009470;28;20435;-67
2023/11/01 09:27:50;;;;;;;2.67;0.70;;;;;;;4.15;86.11;100382.72;5024612;28;20471;-67
2023/11/01 09:30:15;;;;;;;2.08;0.70;;;;;;;4.30;84.96;100356.22;5028168;28;20018;-66
2023/11/01 09:32:40;;;;;;;1.65;0.77;;;;;;;4.69;84.14;100382.13;5011191;28;20614;-66
2023/11/01 09:35:11;;;;;;;1.70;0.80;;;;;;;4.51;83.81;100382.34;5012292;28;20041;-66
2023/11/01 09:37:37;;;;;;;1.15;0.60;;;;;;;4.69;82.76;100377.63;5012320;28;20045;-67
2023/11/01 09:40:03;;;;;;;2.30;0.80;;;;;;;4.73;81.92;100383.44;5012312;28;20492;-67
2023/11/01 09:42:29;;;;;;;1.75;0.82;;;;;;;4.93;82.32;100398.06;5010674;28;20022;-67
2023/11/01 09:44:57;;;;;;;1.45;0.70;;;;;;;4.82;81.87;100392.25;5012174;28;20029;-67
2023/11/01 09:47:27;;;;;;;1.20;1.00;;;;;;;4.93;82.60;100397.19;5012590;28;20507;-67
2023/11/01 09:49:56;;;;;;;1.35;0.77;;;;;;;4.83;81.52;100400.06;5027684;28;20057;-67
2023/11/01 09:52:23;;;;;;;0.95;0.60;;;;;;;5.11;81.52;100395.13;5018062;28;20057;-67
2023/11/01 09:54:49;;;;;;;0.77;0.57;;;;;;;4.99;80.68;100388.50;5029156;28;20045;-67
2023/11/01 09:57:17;;;;;;;1.30;0.50;;;;;;;5.29;81.10;100402.03;5011907;28;20021;-67
2023/11/01 09:59:44;;;;;;;0.98;0.50;;;;;;;5.10;80.89;100404.16;5027812;28;20112;-67
2023/11/01 10:02:10;;;;;;;1.23;0.82;;;;;;;5.00;80.74;100400.84;5012595;28;20060;-67
2023/11/01 10:04:39;;;;;;;0.85;0.60;;;;;;;5.05;80.02;100406.50;5027234;28;20065;-67
2023/11/01 10:07:06;;;;;;;1.45;0.60;;;;;;;4.85;78.44;100402.56;5011542;28;20087;-67
2023/11/01 10:09:31;;;;;;;0.90;0.47;;;;;;;5.07;79.06;100401.81;5012185;28;20465;-67
2023/11/01 10:11:57;;;;;;;0.70;0.40;;;;;;;5.18;79.01;100387.25;5027906;28;20172;-67
2023/11/01 10:14:30;;;;;;;0.47;0.30;;;;;;;5.54;78.51;100408.91;5011422;28;20038;-67
2023/11/01 10:16:57;;;;;;;1.55;0.40;;;;;;;5.58;78.65;100420.06;5027093;28;20083;-67
2023/11/01 10:19:24;;;;;;;2.20;0.40;;;;;;;5.53;76.53;100412.59;5011917;28;20042;-67
2023/11/01 10:21:49;;;;;;;0.70;0.40;;;;;;;5.75;75.55;100418.13;5012467;28;20643;-67
2023/11/01 10:24:15;;;;;;;0.80;0.35;;;;;;;5.99;75.69;100409.97;5012736;28;20203;-67
2023/11/01 10:26:40;;;;;;;1.40;0.40;;;;;;;5.88;73.07;100400.50;5012472;28;20025;-67
2023/11/01 10:29:05;;;;;;;0.82;0.43;;;;;;;5.97;72.77;100390.63;5012834;28;20088;-67
2023/11/01 10:31:31;;;;;;;5.15;0.50;;;;;;;6.07;73.46;100387.72;5012573;28;20030;-67
2023/11/01 10:33:57;;;;;;;0.65;0.30;;;;;;;5.95;72.67;100381.97;5011020;28;20037;-67
2023/11/01 10:36:23;;;;;;;0.93;0.40;;;;;;;5.88;72.95;100386.31;5012430;28;20041;-67
2023/11/01 10:38:53;;;;;;;3.83;0.50;;;;;;;6.03;72.06;100389.09;5020250;28;20378;-67
2023/11/01 10:41:19;;;;;;;0.68;0.50;;;;;;;6.33;73.87;100390.81;5040265;28;20028;-67
2023/11/01 10:43:46;;;;;;;1.58;0.50;;;;;;;6.66;73.13;100387.00;5012619;28;20033;-66
2023/11/01 10:46:12;;;;;;;0.70;0.40;;;;;;;6.63;71.76;100392.69;5012710;28;20038;-67
2023/11/01 10:48:38;;;;;;;0.98;0.50;;;;;;;6.91;71.68;100398.22;5010599;28;20077;-67
2023/11/01 10:51:04;;;;;;;1.00;0.43;;;;;;;6.86;72.02;100384.59;5012331;28;20496;-67
2023/11/01 10:53:33;;;;;;;1.23;0.38;;;;;;;6.69;71.46;100374.09;5012132;28;20034;-67
2023/11/01 10:56:03;;;;;;;0.75;0.38;;;;;;;6.57;71.22;100352.31;5012474;28;20371;-67
2023/11/01 10:58:34;;;;;;;0.52;0.28;;;;;;;6.72;68.93;100371.03;5012406;28;20091;-67
2023/11/01 11:01:20;;;;;;;0.38;0.20;;;;;;;6.94;68.12;100368.44;5011881;28;20104;-67
2023/11/01 11:03:53;;;;;;;0.70;0.40;;;;;;;6.85;68.73;100373.03;5011430;28;20033;-68
2023/11/01 11:06:27;;;;;;;0.77;0.40;;;;;;;7.05;69.55;100368.81;5011801;28;20437;-66
2023/11/01 11:09:23;;;;;;;1.02;0.40;;;;;;;7.13;68.32;100373.22;5011945;28;20037;-66
2023/11/01 11:12:17;;;;;;;0.85;0.40;;;;;;;7.17;67.21;100361.09;5011466;28;20467;-68
2023/11/01 11:14:51;;;;;;;1.13;0.40;;;;;;;7.12;66.21;100355.50;5010692;28;20064;-66
2023/11/01 11:17:23;;;;;;;0.95;0.50;;;;;;;7.02;67.08;100338.91;5011934;28;20479;-68
2023/11/01 11:20:16;;;;;;;0.70;0.40;;;;;;;6.94;64.55;100361.22;5011792;28;20030;-68
2023/11/01 11:23:02;;;;;;;0.40;0.35;;;;;;;7.04;64.85;100367.13;5011798;28;20042;-68
2023/11/01 11:25:40;;;;;;;0.75;0.38;;;;;;;7.12;66.82;100358.19;5011970;28;20704;-67
2023/11/01 11:28:31;;;;;;;1.20;0.73;;;;;;;6.89;65.32;100352.94;5010296;28;20076;-67
2023/11/01 11:31:00;;;;;;;0.88;0.50;;;;;;;7.06;66.59;100349.03;5011616;28;20038;-67